Time;durP1;ratioP1;P1;durP2;ratioP2;P2;SDS_P1;SDS_P2;PMS_P1;PMS_P2;Temp;Humidity;BMP_temperature;BMP_pressure;BME280_temperature;BME280_humidity;BME280_pressure;Samples;Min_cycle;Max_cycle;Signal;HPM_P1;HPM_P2
2022/08/25 00:01:16;;;;;;;4.00;3.57;;;20.20;99.90;;;;;;5051058;28;20595;-71
2022/08/25 00:03:44;;;;;;;7.40;3.40;;;20.20;99.90;;;;;;5050786;28;20432;-71
2022/08/25 00:06:10;;;;;;;4.03;3.40;;;20.10;99.90;;;;;;5050902;28;20643;-71
2022/08/25 00:08:37;;;;;;;6.30;3.33;;;20.20;99.90;;;;;;5050981;28;20975;-71
2022/08/25 00:11:14;;;;;;;5.70;3.63;;;20.20;99.90;;;;;;5050922;28;20430;-71
2022/08/25 00:13:42;;;;;;;3.83;3.53;;;20.20;99.90;;;;;;5049861;28;20417;-71
2022/08/25 00:16:10;;;;;;;7.40;3.37;;;20.30;99.90;;;;;;5050984;28;20422;-71
2022/08/25 00:18:36;;;;;;;3.80;3.50;;;20.30;99.90;;;;;;5049654;28;20436;-71
2022/08/25 00:21:03;;;;;;;4.23;3.63;;;20.30;99.90;;;;;;5049593;28;20447;-71
2022/08/25 00:23:29;;;;;;;4.00;3.60;;;20.30;99.90;;;;;;5051009;28;20466;-71
2022/08/25 00:25:55;;;;;;;3.43;3.07;;;20.30;99.90;;;;;;5049673;28;20458;-70
2022/08/25 00:28:20;;;;;;;3.60;3.30;;;20.30;99.90;;;;;;5050778;28;20222;-70
2022/08/25 00:30:47;;;;;;;4.23;3.83;;;20.30;99.90;;;;;;5049258;28;20220;-71
2022/08/25 00:33:13;;;;;;;3.30;3.00;;;20.30;99.90;;;;;;5049652;28;20188;-71
2022/08/25 00:35:41;;;;;;;3.63;3.20;;;20.30;99.90;;;;;;5049841;28;20461;-71
2022/08/25 00:38:07;;;;;;;3.73;3.40;;;20.30;99.90;;;;;;5050769;28;20441;-71
2022/08/25 00:40:36;;;;;;;4.40;3.37;;;20.30;99.90;;;;;;5050250;28;20465;-71
2022/08/25 00:43:02;;;;;;;4.47;4.07;;;20.30;99.90;;;;;;5050446;28;21064;-71
2022/08/25 00:45:28;;;;;;;3.70;3.40;;;20.30;99.90;;;;;;5050794;28;20767;-72
2022/08/25 00:47:53;;;;;;;4.57;3.80;;;20.30;99.90;;;;;;5050483;28;20461;-72
2022/08/25 00:50:21;;;;;;;4.50;4.03;;;20.20;99.90;;;;;;5049304;28;20626;-72
2022/08/25 00:52:50;;;;;;;6.97;4.03;;;20.10;99.90;;;;;;5050768;28;20180;-72
2022/08/25 00:55:33;;;;;;;4.20;3.80;;;20.00;99.90;;;;;;5050590;28;20452;-72
2022/08/25 00:58:12;;;;;;;4.93;4.00;;;20.00;99.90;;;;;;5050388;28;20453;-72
2022/08/25 01:00:41;;;;;;;5.63;4.07;;;20.00;99.90;;;;;;5048927;28;21064;-73
2022/08/25 01:03:07;;;;;;;5.70;3.90;;;19.90;99.90;;;;;;5048614;28;20538;-73
2022/08/25 01:05:33;;;;;;;4.53;3.87;;;19.90;99.90;;;;;;5050025;28;21081;-72
2022/08/25 01:08:02;;;;;;;5.60;4.47;;;19.90;99.90;;;;;;5049596;28;20785;-72
2022/08/25 01:10:29;;;;;;;4.30;3.90;;;20.00;99.90;;;;;;5049424;28;20456;-72
2022/08/25 01:13:01;;;;;;;4.13;3.73;;;20.00;99.90;;;;;;5049442;28;20824;-73
2022/08/25 01:15:27;;;;;;;4.37;4.00;;;20.00;99.90;;;;;;5049356;28;20462;-73
2022/08/25 01:17:56;;;;;;;5.20;3.70;;;20.00;99.90;;;;;;5049300;28;20838;-72
2022/08/25 01:20:26;;;;;;;4.30;3.70;;;20.00;99.90;;;;;;5047852;28;20837;-72
2022/08/25 01:22:52;;;;;;;3.93;3.53;;;20.00;99.90;;;;;;5047872;28;20805;-72
2022/08/25 01:25:30;;;;;;;4.37;3.43;;;20.00;99.90;;;;;;5048998;28;20471;-72
2022/08/25 01:27:55;;;;;;;5.13;3.90;;;20.00;99.90;;;;;;5049141;28;20465;-72
2022/08/25 01:30:22;;;;;;;5.47;3.13;;;20.00;99.90;;;;;;5049053;28;20441;-72
2022/08/25 01:32:48;;;;;;;4.20;3.43;;;20.00;99.90;;;;;;5049023;28;20702;-72
2022/08/25 01:35:13;;;;;;;3.83;3.47;;;20.00;99.90;;;;;;5049248;28;20480;-73
2022/08/25 01:37:39;;;;;;;4.43;4.00;;;20.00;99.90;;;;;;5048904;28;20188;-72
2022/08/25 01:40:06;;;;;;;4.17;3.80;;;20.10;99.90;;;;;;5048803;28;20215;-72
2022/08/25 01:42:36;;;;;;;5.27;4.77;;;20.10;99.90;;;;;;5048895;28;20433;-72
2022/08/25 01:45:04;;;;;;;5.57;3.97;;;20.00;99.90;;;;;;5049118;28;20411;-72
2022/08/25 01:47:30;;;;;;;3.80;3.50;;;20.10;99.90;;;;;;5047169;28;20914;-72
2022/08/25 01:49:56;;;;;;;4.67;3.87;;;20.00;99.90;;;;;;5048967;28;20529;-72
2022/08/25 01:52:31;;;;;;;5.47;4.13;;;20.10;99.90;;;;;;5048772;28;20521;-73
2022/08/25 01:54:57;;;;;;;4.43;4.00;;;20.00;99.90;;;;;;5047159;28;20183;-70
2022/08/25 01:57:23;;;;;;;4.30;3.60;;;20.00;99.90;;;;;;5048533;28;20439;-70
2022/08/25 01:59:49;;;;;;;4.40;3.70;;;20.00;99.90;;;;;;5048876;28;20203;-71
2022/08/25 02:02:14;;;;;;;3.87;3.43;;;20.00;99.90;;;;;;5048737;28;20440;-70
2022/08/25 02:04:40;;;;;;;4.10;3.70;;;19.90;99.90;;;;;;5048563;28;20417;-72
2022/08/25 02:07:08;;;;;;;3.67;3.37;;;19.90;99.90;;;;;;5048588;28;20298;-72
2022/08/25 02:09:35;;;;;;;4.77;4.37;;;19.90;99.90;;;;;;5047299;28;20208;-72
2022/08/25 02:12:02;;;;;;;3.73;3.30;;;19.70;99.90;;;;;;5048504;28;20507;-73
2022/08/25 02:14:28;;;;;;;9.50;4.10;;;19.60;99.90;;;;;;5048570;28;20517;-72
2022/08/25 02:16:54;;;;;;;5.60;4.40;;;19.60;99.90;;;;;;5048497;28;20430;-73
2022/08/25 02:19:22;;;;;;;4.23;3.83;;;19.40;99.90;;;;;;5048629;28;20195;-73
2022/08/25 02:21:48;;;;;;;4.63;3.83;;;19.40;99.90;;;;;;5046863;28;20430;-72
2022/08/25 02:24:13;;;;;;;5.17;4.67;;;19.20;99.90;;;;;;5048327;28;20798;-72
2022/08/25 02:26:40;;;;;;;5.27;4.40;;;19.10;99.90;;;;;;5048088;28;20323;-70
2022/08/25 02:29:06;;;;;;;4.70;4.20;;;19.00;99.90;;;;;;5048092;28;20201;-70
2022/08/25 02:31:32;;;;;;;4.87;4.37;;;19.00;99.90;;;;;;5048333;28;20425;-72
2022/08/25 02:33:58;;;;;;;5.40;4.50;;;19.00;99.90;;;;;;5048580;28;20840;-72
2022/08/25 02:36:24;;;;;;;4.87;4.10;;;18.90;99.90;;;;;;5050070;28;21214;-72
2022/08/25 02:38:50;;;;;;;4.43;3.70;;;18.80;99.90;;;;;;5052247;28;20429;-72
2022/08/25 02:41:19;;;;;;;4.97;3.87;;;18.80;99.90;;;;;;5052188;28;20589;-70
2022/08/25 02:43:46;;;;;;;4.37;3.53;;;18.70;99.90;;;;;;5052355;28;20565;-70
2022/08/25 02:46:12;;;;;;;6.57;4.17;;;18.60;99.90;;;;;;5052049;28;20471;-73
2022/08/25 02:48:38;;;;;;;7.03;4.50;;;18.60;99.90;;;;;;5052469;28;20801;-70
2022/08/25 02:51:05;;;;;;;7.50;4.87;;;18.50;99.90;;;;;;5052056;28;20208;-73
2022/08/25 02:53:32;;;;;;;6.33;5.67;;;18.60;99.90;;;;;;5051976;28;20414;-72
2022/08/25 02:55:58;;;;;;;7.47;5.40;;;18.70;99.90;;;;;;5051940;28;20425;-73
2022/08/25 02:58:24;;;;;;;4.80;4.30;;;18.70;99.90;;;;;;5050353;28;20451;-73
2022/08/25 03:00:51;;;;;;;4.40;4.00;;;18.60;99.90;;;;;;5050291;28;20449;-70
2022/08/25 03:03:18;;;;;;;5.40;4.80;;;18.40;99.90;;;;;;5050154;28;20472;-72
2022/08/25 03:05:44;;;;;;;8.20;5.80;;;18.40;99.90;;;;;;5051771;28;20476;-73
2022/08/25 03:08:10;;;;;;;9.73;5.70;;;18.50;99.90;;;;;;5051559;28;20464;-73
2022/08/25 03:10:36;;;;;;;6.00;5.40;;;18.60;99.90;;;;;;5051592;28;20454;-72
2022/08/25 03:13:02;;;;;;;8.70;7.80;;;18.50;99.90;;;;;;5051589;28;20430;-73
2022/08/25 03:15:27;;;;;;;8.20;7.30;;;18.60;99.90;;;;;;5051514;28;20184;-73
2022/08/25 03:17:54;;;;;;;9.47;7.10;;;18.60;99.90;;;;;;5050069;28;20436;-73
2022/08/25 03:20:24;;;;;;;8.33;6.80;;;18.70;99.90;;;;;;5051418;28;20234;-71
2022/08/25 03:22:54;;;;;;;10.50;7.83;;;18.80;99.90;;;;;;5051403;28;20424;-70
2022/08/25 03:28:06;;;;;;;9.20;6.80;;;18.80;99.90;;;;;;5051612;28;20616;-73
2022/08/25 03:30:31;;;;;;;8.90;7.40;;;18.80;99.90;;;;;;5051226;28;20438;-70
2022/08/25 03:32:57;;;;;;;7.87;6.53;;;18.90;99.90;;;;;;5051703;28;20429;-73
2022/08/25 03:35:23;;;;;;;8.20;6.60;;;18.90;99.90;;;;;;5049687;28;20191;-72
2022/08/25 03:37:50;;;;;;;8.10;6.97;;;18.90;99.90;;;;;;5051214;28;20241;-72
2022/08/25 03:40:18;;;;;;;7.63;6.40;;;18.90;99.90;;;;;;5051299;28;20599;-72
2022/08/25 03:42:45;;;;;;;6.57;5.87;;;18.90;99.90;;;;;;5051114;28;20437;-72
2022/08/25 03:45:15;;;;;;;10.20;7.40;;;18.90;99.90;;;;;;5051414;28;20430;-73
2022/08/25 03:47:41;;;;;;;9.97;7.67;;;18.90;99.90;;;;;;5050778;28;20473;-73
2022/08/25 03:50:09;;;;;;;8.60;7.00;;;19.00;99.90;;;;;;5051185;28;20853;-71
2022/08/25 03:52:36;;;;;;;7.23;6.50;;;19.00;99.90;;;;;;5050923;28;20835;-72
2022/08/25 03:55:04;;;;;;;6.37;5.77;;;19.10;99.90;;;;;;5050928;28;20436;-72
2022/08/25 03:57:30;;;;;;;7.13;4.90;;;18.90;99.90;;;;;;5050845;28;20462;-72
2022/08/25 03:59:56;;;;;;;11.70;6.60;;;18.60;99.90;;;;;;5051204;28;20437;-73
2022/08/25 04:02:22;;;;;;;7.43;5.30;;;18.30;99.90;;;;;;5049579;28;20188;-72
2022/08/25 04:04:48;;;;;;;9.20;5.47;;;18.20;99.90;;;;;;5051516;28;20187;-72
2022/08/25 04:07:13;;;;;;;8.63;5.40;;;18.00;99.90;;;;;;5049342;28;20564;-73
2022/08/25 04:09:39;;;;;;;8.23;6.47;;;17.90;99.90;;;;;;5050533;28;20199;-72
2022/08/25 04:12:04;;;;;;;9.00;6.10;;;17.80;99.90;;;;;;5050691;28;20187;-72
2022/08/25 04:14:30;;;;;;;9.63;7.20;;;17.70;99.90;;;;;;5050550;28;20556;-72
2022/08/25 04:16:56;;;;;;;9.93;6.07;;;17.60;99.90;;;;;;5050488;28;20185;-72
2022/08/25 04:19:22;;;;;;;9.00;7.10;;;17.50;99.90;;;;;;5049068;28;20287;-72
2022/08/25 04:21:48;;;;;;;7.40;6.63;;;17.50;99.90;;;;;;5050592;28;20556;-72
2022/08/25 04:24:14;;;;;;;7.80;6.97;;;17.50;99.90;;;;;;5050396;28;20187;-72
2022/08/25 04:26:46;;;;;;;8.63;6.70;;;17.40;99.90;;;;;;5050358;28;20490;-72
2022/08/25 04:29:14;;;;;;;11.03;7.50;;;17.40;99.90;;;;;;5050318;28;20183;-72
2022/08/25 04:31:41;;;;;;;9.70;6.73;;;17.40;99.90;;;;;;5048994;28;20436;-72
2022/08/25 04:34:10;;;;;;;8.93;7.77;;;17.30;99.90;;;;;;5050150;28;20428;-72
2022/08/25 04:36:36;;;;;;;8.50;6.60;;;17.30;99.90;;;;;;5049966;28;20809;-72
2022/08/25 04:39:02;;;;;;;10.03;7.10;;;17.30;99.90;;;;;;5048889;28;20422;-72
2022/08/25 04:41:29;;;;;;;12.70;7.23;;;17.30;99.90;;;;;;5047547;28;20197;-72
2022/08/25 04:43:56;;;;;;;7.37;6.57;;;17.40;99.90;;;;;;5047790;28;20425;-72
2022/08/25 04:46:25;;;;;;;8.70;6.70;;;17.30;99.90;;;;;;5049273;28;20598;-72
2022/08/25 04:48:53;;;;;;;8.43;6.50;;;17.20;99.90;;;;;;5049240;28;20923;-71
2022/08/25 04:51:27;;;;;;;9.60;7.40;;;17.20;99.90;;;;;;5049340;28;20441;-71
2022/08/25 04:53:53;;;;;;;11.00;7.80;;;17.20;99.90;;;;;;5049504;28;20790;-71
2022/08/25 04:56:23;;;;;;;8.27;7.17;;;17.20;99.90;;;;;;5049492;28;20858;-71
2022/08/25 04:58:49;;;;;;;7.77;6.97;;;17.20;99.90;;;;;;5049370;28;20441;-71
2022/08/25 05:01:20;;;;;;;10.40;7.60;;;17.20;99.90;;;;;;5048149;28;20540;-71
2022/08/25 05:03:50;;;;;;;9.23;7.40;;;17.20;99.90;;;;;;5049572;28;20495;-70
2022/08/25 05:06:16;;;;;;;8.43;7.43;;;17.30;99.90;;;;;;5049537;28;20473;-70
2022/08/25 05:08:42;;;;;;;12.03;7.20;;;17.30;99.90;;;;;;5048780;28;20421;-70
2022/08/25 05:11:15;;;;;;;9.87;7.87;;;17.30;99.90;;;;;;5047064;28;20212;-70
2022/08/25 05:13:42;;;;;;;7.10;6.23;;;17.30;99.90;;;;;;5048465;28;20428;-70
2022/08/25 05:16:08;;;;;;;8.43;7.37;;;17.30;99.90;;;;;;5048230;28;20413;-70
2022/08/25 05:18:34;;;;;;;10.10;8.17;;;17.30;99.90;;;;;;5048401;28;20425;-70
2022/08/25 05:21:06;;;;;;;16.93;7.37;;;17.30;99.90;;;;;;5047009;28;20573;-71
2022/08/25 05:23:32;;;;;;;10.50;7.67;;;17.30;99.90;;;;;;5048508;28;20435;-71
2022/08/25 05:26:06;;;;;;;9.13;6.90;;;17.40;99.90;;;;;;5048169;28;20427;-70
2022/08/25 05:28:32;;;;;;;8.13;7.30;;;17.40;99.90;;;;;;5047884;28;20549;-70
2022/08/25 05:31:00;;;;;;;8.70;7.00;;;17.40;99.90;;;;;;5047665;28;20800;-70
2022/08/25 05:33:27;;;;;;;10.57;7.20;;;17.40;99.90;;;;;;5047668;28;20525;-69
2022/08/25 05:35:52;;;;;;;8.40;7.00;;;17.50;99.90;;;;;;5047552;28;20423;-68
2022/08/25 05:38:18;;;;;;;9.83;6.77;;;17.60;99.90;;;;;;5047840;28;20426;-69
2022/08/25 05:40:44;;;;;;;7.33;6.63;;;17.70;99.90;;;;;;5048278;28;20222;-69
2022/08/25 05:43:11;;;;;;;7.87;6.90;;;17.80;99.90;;;;;;5047517;28;20270;-69
2022/08/25 05:45:36;;;;;;;7.33;6.63;;;17.90;99.90;;;;;;5045836;28;20199;-68
2022/08/25 05:48:02;;;;;;;8.20;7.40;;;18.00;99.90;;;;;;5047866;28;20488;-70
2022/08/25 05:50:28;;;;;;;7.90;6.90;;;18.20;99.90;;;;;;5047213;28;20211;-69
2022/08/25 05:52:53;;;;;;;8.03;7.10;;;18.20;99.90;;;;;;5047299;28;20281;-69
2022/08/25 05:55:19;;;;;;;9.07;6.27;;;18.30;99.90;;;;;;5045840;28;20183;-68
2022/08/25 05:57:45;;;;;;;10.80;6.90;;;18.50;99.90;;;;;;5029179;28;20236;-68
2022/08/25 06:00:11;;;;;;;9.23;6.80;;;18.60;99.90;;;;;;5047618;28;20218;-68
2022/08/25 06:02:43;;;;;;;12.07;7.37;;;18.70;99.90;;;;;;5047186;28;20988;-70
2022/08/25 06:05:12;;;;;;;15.70;7.40;;;18.80;99.90;;;;;;5047193;28;20427;-69
2022/08/25 06:07:38;;;;;;;26.87;8.43;;;18.90;99.90;;;;;;5046961;28;20468;-70
2022/08/25 06:10:06;;;;;;;8.20;7.40;;;19.00;99.90;;;;;;5028269;28;20438;-68
2022/08/25 06:12:34;;;;;;;8.40;6.63;;;19.20;99.90;;;;;;5045480;28;20974;-70
2022/08/25 06:15:01;;;;;;;8.83;6.20;;;19.40;99.90;;;;;;5046776;28;20552;-71
2022/08/25 06:17:27;;;;;;;7.77;6.50;;;19.50;99.90;;;;;;5046880;28;20541;-71
2022/08/25 06:19:53;;;;;;;8.33;7.07;;;19.60;99.90;;;;;;5046818;28;20556;-71
2022/08/25 06:22:20;;;;;;;9.63;6.13;;;19.70;99.90;;;;;;5045451;28;20188;-71
2022/08/25 06:24:46;;;;;;;8.63;7.40;;;19.80;99.90;;;;;;5046738;28;20433;-71
2022/08/25 06:27:12;;;;;;;7.70;6.90;;;19.90;99.90;;;;;;5046753;28;20549;-71
2022/08/25 06:29:37;;;;;;;10.50;7.03;;;20.10;99.90;;;;;;5045105;28;20449;-71
2022/08/25 06:32:03;;;;;;;7.23;6.53;;;20.30;99.90;;;;;;5046814;28;20223;-72
2022/08/25 06:34:29;;;;;;;11.50;6.80;;;20.30;99.90;;;;;;5046843;28;20214;-71
2022/08/25 06:36:55;;;;;;;8.23;6.50;;;20.60;99.90;;;;;;5047006;28;20229;-71
2022/08/25 06:39:21;;;;;;;9.30;6.77;;;20.70;99.90;;;;;;5045442;28;20754;-71
2022/08/25 06:41:51;;;;;;;9.70;7.33;;;20.90;99.90;;;;;;5046842;28;20220;-71
2022/08/25 06:44:17;;;;;;;7.87;7.00;;;20.90;99.90;;;;;;5046740;28;20492;-72
2022/08/25 06:46:43;;;;;;;8.17;6.93;;;21.20;99.90;;;;;;5045209;28;20881;-71
2022/08/25 06:49:08;;;;;;;11.10;6.33;;;21.20;99.90;;;;;;5046831;28;20715;-71
2022/08/25 06:51:34;;;;;;;6.87;5.97;;;21.10;99.90;;;;;;5045606;28;20429;-71
2022/08/25 06:54:00;;;;;;;8.10;6.90;;;21.10;99.90;;;;;;5047120;28;20218;-71
2022/08/25 06:56:26;;;;;;;7.10;6.13;;;21.10;99.90;;;;;;5047063;28;20439;-71
2022/08/25 06:58:51;;;;;;;7.03;6.33;;;21.30;99.90;;;;;;5046969;28;20199;-71
2022/08/25 07:01:22;;;;;;;10.07;7.47;;;21.20;99.90;;;;;;5045635;28;20212;-71
2022/08/25 07:03:49;;;;;;;8.60;7.70;;;21.10;99.90;;;;;;5047306;28;20185;-71
2022/08/25 07:06:17;;;;;;;7.77;6.97;;;21.00;99.90;;;;;;5046952;28;20813;-71
2022/08/25 07:08:43;;;;;;;9.27;8.37;;;21.00;99.90;;;;;;5047054;28;20857;-71
2022/08/25 07:11:10;;;;;;;9.30;7.30;;;21.00;99.90;;;;;;5045650;28;20542;-71
2022/08/25 07:13:37;;;;;;;9.70;8.17;;;21.00;99.90;;;;;;5047698;28;21223;-71
2022/08/25 07:16:04;;;;;;;9.53;7.20;;;21.00;99.90;;;;;;5047540;28;20423;-71
2022/08/25 07:18:30;;;;;;;8.60;7.10;;;21.00;99.90;;;;;;5047579;28;20418;-71
2022/08/25 07:20:56;;;;;;;7.70;6.87;;;20.90;99.90;;;;;;5046989;28;20439;-71
2022/08/25 07:23:23;;;;;;;7.43;6.30;;;21.00;99.90;;;;;;5050273;28;20418;-71
2022/08/25 07:25:49;;;;;;;8.23;6.67;;;21.00;99.90;;;;;;5049535;28;20461;-71
2022/08/25 07:28:16;;;;;;;8.80;6.83;;;21.10;99.90;;;;;;5050461;28;20470;-71
2022/08/25 07:30:42;;;;;;;6.00;5.40;;;21.10;99.90;;;;;;5050616;28;20919;-71
2022/08/25 07:33:08;;;;;;;8.20;6.33;;;21.30;99.90;;;;;;5050829;28;20458;-71
2022/08/25 07:35:35;;;;;;;6.87;5.90;;;21.30;99.90;;;;;;5049574;28;20471;-71
2022/08/25 07:38:02;;;;;;;7.87;6.67;;;21.40;99.90;;;;;;5051362;28;20496;-71
2022/08/25 07:40:31;;;;;;;13.30;6.27;;;21.40;99.90;;;;;;5051284;28;20439;-71
2022/08/25 07:43:01;;;;;;;8.80;6.73;;;21.60;99.90;;;;;;5048469;28;20438;-71
2022/08/25 07:45:29;;;;;;;9.17;7.20;;;21.60;99.90;;;;;;5050561;28;20845;-71
2022/08/25 07:48:03;;;;;;;7.03;5.70;;;21.60;99.90;;;;;;5048796;28;20507;-71
2022/08/25 07:50:30;;;;;;;10.57;7.23;;;21.70;99.90;;;;;;5050229;28;20465;-71
2022/08/25 07:52:56;;;;;;;6.93;6.23;;;21.80;99.90;;;;;;5050165;28;20943;-71
2022/08/25 07:55:26;;;;;;;9.77;7.03;;;21.90;99.90;;;;;;5050489;28;20412;-71
2022/08/25 07:57:53;;;;;;;9.27;6.53;;;22.00;99.90;;;;;;5049987;28;20451;-71
2022/08/25 08:00:19;;;;;;;10.80;6.27;;;22.10;99.90;;;;;;5049535;28;20516;-71
2022/08/25 08:02:45;;;;;;;11.70;6.70;;;22.10;99.90;;;;;;5049418;28;20974;-71
2022/08/25 08:05:12;;;;;;;8.33;6.20;;;22.20;99.90;;;;;;5049438;28;20515;-71
2022/08/25 08:07:38;;;;;;;7.70;6.47;;;22.30;99.90;;;;;;5049562;28;20301;-71
2022/08/25 08:10:06;;;;;;;5.87;5.30;;;22.50;99.90;;;;;;5049503;28;20973;-72
2022/08/25 08:12:33;;;;;;;9.53;5.90;;;22.70;99.90;;;;;;5049299;28;20416;-71
2022/08/25 08:14:59;;;;;;;7.33;6.30;;;22.70;99.90;;;;;;5049419;28;20436;-71
2022/08/25 08:17:25;;;;;;;8.03;6.60;;;22.80;99.90;;;;;;5047795;28;20430;-71
2022/08/25 08:19:51;;;;;;;9.30;6.10;;;22.90;99.90;;;;;;5049305;28;20444;-71
2022/08/25 08:22:17;;;;;;;7.47;6.10;;;23.00;99.90;;;;;;5048165;28;20506;-72
2022/08/25 08:24:44;;;;;;;7.70;5.83;;;23.20;99.90;;;;;;5049765;28;20175;-71
2022/08/25 08:27:12;;;;;;;7.83;5.87;;;23.30;99.90;;;;;;5049673;28;21077;-72
2022/08/25 08:29:39;;;;;;;9.30;6.40;;;23.40;99.90;;;;;;5049526;28;20445;-71
2022/08/25 08:32:13;;;;;;;6.60;6.00;;;23.50;99.90;;;;;;5049264;28;20421;-71
2022/08/25 08:34:40;;;;;;;6.87;6.17;;;23.50;99.90;;;;;;5048332;28;20421;-72
2022/08/25 08:37:07;;;;;;;6.90;6.20;;;23.60;99.90;;;;;;5047789;28;20932;-72
2022/08/25 08:39:33;;;;;;;7.03;6.30;;;23.70;99.90;;;;;;5049028;28;20442;-71
2022/08/25 08:42:30;;;;;;;7.23;6.53;;;23.80;99.90;;;;;;5048953;28;20429;-71
2022/08/25 08:45:26;;;;;;;7.93;6.47;;;24.00;99.90;;;;;;5049010;28;20706;-71
2022/08/25 08:48:09;;;;;;;8.87;6.40;;;24.10;99.90;;;;;;5047369;28;20468;-71
2022/08/25 08:50:53;;;;;;;9.07;7.03;;;24.30;99.90;;;;;;5048913;28;20880;-71
2022/08/25 08:53:30;;;;;;;5.30;4.90;;;24.50;99.90;;;;;;5048872;28;20413;-71
2022/08/25 08:56:09;;;;;;;9.13;6.80;;;24.60;99.90;;;;;;5048979;28;20406;-71
2022/08/25 08:58:57;;;;;;;6.07;5.50;;;24.70;99.90;;;;;;5048833;28;20445;-71
2022/08/25 09:01:55;;;;;;;6.23;5.63;;;24.90;99.90;;;;;;5047493;28;20456;-71
2022/08/25 09:04:43;;;;;;;6.60;5.97;;;25.10;99.90;;;;;;5049253;28;20421;-71
2022/08/25 09:07:40;;;;;;;11.33;5.73;;;25.20;99.90;;;;;;5049101;28;20465;-72
2022/08/25 09:10:06;;;;;;;5.33;4.83;;;25.40;99.90;;;;;;5049456;28;20541;-72
2022/08/25 09:13:17;;;;;;;5.83;5.00;;;25.80;99.90;;;;;;5048104;28;20505;-71
2022/08/25 09:18:53;;;;;;;4.87;4.47;;;26.30;99.90;;;;;;5048507;28;20936;-71
2022/08/25 09:21:36;;;;;;;6.40;5.20;;;26.80;99.90;;;;;;5049313;28;20430;-71
2022/08/25 09:24:27;;;;;;;4.43;4.03;;;27.10;98.90;;;;;;5049562;28;20913;-71
2022/08/25 09:27:34;;;;;;;8.83;4.13;;;27.40;96.70;;;;;;5049025;28;21110;-70
2022/08/25 09:30:03;;;;;;;5.80;4.20;;;27.70;95.70;;;;;;5048614;28;20952;-72
2022/08/25 09:32:39;;;;;;;6.00;4.00;;;27.90;95.00;;;;;;5048902;28;20406;-72
2022/08/25 09:35:11;;;;;;;6.07;4.23;;;28.20;94.50;;;;;;5048334;28;20406;-72
2022/08/25 09:37:36;;;;;;;4.80;3.90;;;28.10;93.10;;;;;;5048111;28;20418;-72
2022/08/25 09:40:02;;;;;;;6.20;4.07;;;28.10;94.80;;;;;;5047116;28;20480;-72
2022/08/25 09:42:48;;;;;;;4.70;3.90;;;28.20;93.90;;;;;;5048564;28;20191;-71
2022/08/25 09:45:14;;;;;;;3.67;3.40;;;28.70;92.50;;;;;;5048270;28;20413;-72
2022/08/25 09:47:44;;;;;;;6.03;4.20;;;29.10;92.00;;;;;;5048167;28;20466;-71
2022/08/25 09:50:16;;;;;;;4.30;3.90;;;29.40;90.70;;;;;;5046816;28;20626;-71
2022/08/25 09:52:43;;;;;;;3.73;3.43;;;29.00;90.10;;;;;;5048216;28;20788;-72
2022/08/25 09:55:14;;;;;;;5.10;4.37;;;29.20;90.80;;;;;;5048467;28;21060;-72
2022/08/25 09:57:42;;;;;;;5.50;4.23;;;29.50;88.30;;;;;;5047891;28;20898;-71
2022/08/25 10:00:20;;;;;;;4.10;3.80;;;30.00;88.50;;;;;;5047037;28;20528;-71
2022/08/25 10:03:19;;;;;;;5.60;4.10;;;30.00;87.40;;;;;;5047342;28;20509;-71
2022/08/25 10:05:53;;;;;;;8.70;3.90;;;30.40;85.10;;;;;;5044266;28;20464;-71
2022/08/25 10:08:51;;;;;;;3.90;3.60;;;30.20;85.60;;;;;;5047396;28;20496;-71
2022/08/25 10:11:41;;;;;;;7.63;3.37;;;30.70;84.60;;;;;;5047908;28;20454;-72
2022/08/25 10:14:15;;;;;;;3.90;3.60;;;31.00;80.60;;;;;;5047347;28;20941;-72
2022/08/25 10:16:41;;;;;;;5.60;4.10;;;31.20;81.50;;;;;;5047463;28;20448;-70
2022/08/25 10:19:11;;;;;;;3.90;3.60;;;31.10;81.70;;;;;;5046116;28;20449;-72
2022/08/25 10:21:42;;;;;;;3.97;3.67;;;31.10;80.70;;;;;;5047371;28;20176;-70
2022/08/25 10:24:10;;;;;;;5.30;4.03;;;31.10;80.70;;;;;;5045642;28;20418;-70
2022/08/25 10:27:13;;;;;;;3.13;2.93;;;31.10;81.50;;;;;;5045800;28;20495;-70
2022/08/25 10:30:00;;;;;;;3.27;3.00;;;31.20;79.90;;;;;;5046909;28;20430;-69
2022/08/25 10:32:32;;;;;;;4.30;3.90;;;31.70;78.00;;;;;;5047139;28;20448;-70
2022/08/25 10:35:02;;;;;;;3.37;3.10;;;32.00;77.20;;;;;;5047048;28;20401;-69
2022/08/25 10:37:53;;;;;;;3.10;2.80;;;32.20;77.20;;;;;;5045122;28;20433;-71
2022/08/25 10:40:24;;;;;;;2.80;2.60;;;32.30;78.60;;;;;;5046965;28;20430;-70
2022/08/25 10:43:34;;;;;;;3.00;2.67;;;32.50;75.10;;;;;;5047324;28;20406;-71
2022/08/25 10:46:06;;;;;;;3.13;2.83;;;32.70;74.10;;;;;;5046876;28;20444;-71
2022/08/25 10:48:40;;;;;;;2.90;2.70;;;32.10;73.70;;;;;;5045070;28;20470;-69
2022/08/25 10:51:30;;;;;;;3.13;2.90;;;31.60;74.40;;;;;;5047066;28;20436;-70
2022/08/25 10:54:06;;;;;;;2.90;2.67;;;31.40;76.20;;;;;;5047169;28;21223;-70
2022/08/25 10:56:40;;;;;;;3.13;2.90;;;30.80;76.20;;;;;;5047427;28;20455;-70
2022/08/25 10:59:27;;;;;;;2.70;2.50;;;30.80;74.50;;;;;;5049299;28;20945;-70
2022/08/25 11:02:32;;;;;;;2.67;2.47;;;30.50;75.00;;;;;;5049482;28;20471;-71
2022/08/25 11:05:16;;;;;;;2.70;2.50;;;30.50;77.00;;;;;;5048724;28;20437;-71
2022/08/25 11:07:48;;;;;;;2.70;2.50;;;30.50;76.60;;;;;;5049329;28;20460;-70
2022/08/25 11:10:16;;;;;;;5.00;2.80;;;30.60;76.70;;;;;;5051159;28;20976;-71
2022/08/25 11:12:44;;;;;;;3.67;3.37;;;30.50;75.00;;;;;;5051072;28;20926;-71
2022/08/25 11:15:21;;;;;;;2.80;2.60;;;30.40;76.60;;;;;;5050898;28;20517;-71
2022/08/25 11:18:02;;;;;;;3.57;2.30;;;30.50;76.30;;;;;;5050540;28;20447;-70
2022/08/25 11:20:54;;;;;;;4.97;2.93;;;30.50;77.20;;;;;;5050967;28;20438;-71
2022/08/25 11:23:43;;;;;;;2.60;2.50;;;30.20;77.20;;;;;;5045367;28;20794;-70
2022/08/25 11:26:15;;;;;;;2.60;2.50;;;30.00;75.00;;;;;;5050878;28;20414;-69
2022/08/25 11:29:02;;;;;;;3.67;3.00;;;29.70;77.60;;;;;;5050918;28;20405;-70
2022/08/25 11:31:28;;;;;;;6.50;2.70;;;29.50;78.20;;;;;;5048792;28;20987;-70
2022/08/25 11:33:55;;;;;;;2.67;2.57;;;29.30;79.70;;;;;;5050673;28;20421;-71
2022/08/25 11:36:31;;;;;;;4.70;2.77;;;29.10;81.40;;;;;;5050781;28;20413;-69
2022/08/25 11:39:03;;;;;;;10.03;3.00;;;29.10;81.60;;;;;;5050621;28;20421;-72
2022/08/25 11:41:41;;;;;;;3.00;2.80;;;29.20;80.40;;;;;;5050715;28;20417;-70
2022/08/25 11:44:15;;;;;;;3.00;2.80;;;29.40;82.30;;;;;;5050485;28;20500;-69
2022/08/25 11:46:50;;;;;;;3.70;3.40;;;29.60;79.60;;;;;;5050338;28;20460;-69
2022/08/25 11:49:46;;;;;;;4.90;2.70;;;29.40;80.50;;;;;;5049814;28;20413;-71
2022/08/25 11:52:37;;;;;;;3.07;2.73;;;29.20;79.20;;;;;;5050056;28;20437;-71
2022/08/25 11:55:05;;;;;;;3.13;2.93;;;29.20;80.60;;;;;;5049752;28;20452;-69
2022/08/25 11:57:31;;;;;;;6.10;3.23;;;29.50;80.10;;;;;;5047902;28;20488;-71
2022/08/25 12:00:08;;;;;;;4.83;3.23;;;29.70;78.90;;;;;;5049465;28;20450;-70
2022/08/25 12:02:43;;;;;;;3.10;2.77;;;29.50;78.20;;;;;;5049371;28;20456;-71
2022/08/25 12:05:09;;;;;;;3.63;3.13;;;29.50;80.20;;;;;;5049446;28;20440;-70
2022/08/25 12:11:02;;;;;;;3.13;2.83;;;29.00;80.20;;;;;;5049228;28;20257;-70
2022/08/25 12:13:47;;;;;;;3.37;3.07;;;29.00;80.60;;;;;;5047700;28;20433;-70
2022/08/25 12:16:31;;;;;;;6.70;2.90;;;29.10;79.50;;;;;;5049292;28;20435;-72
2022/08/25 12:19:35;;;;;;;4.03;2.97;;;29.40;79.50;;;;;;5049110;28;20444;-69
2022/08/25 12:22:00;;;;;;;2.77;2.57;;;29.10;81.90;;;;;;5049100;28;20412;-70
2022/08/25 12:24:41;;;;;;;3.67;2.70;;;29.10;81.30;;;;;;5049153;28;20429;-71
2022/08/25 12:27:09;;;;;;;3.40;3.10;;;29.10;77.40;;;;;;5049378;28;20290;-70
2022/08/25 12:30:04;;;;;;;3.40;2.40;;;29.00;77.50;;;;;;5047976;28;20453;-70
2022/08/25 12:32:47;;;;;;;4.07;3.03;;;28.90;80.10;;;;;;5042167;28;20527;-70
2022/08/25 12:35:24;;;;;;;3.57;3.27;;;29.00;81.80;;;;;;5047496;28;20418;-70
2022/08/25 12:38:04;;;;;;;3.60;3.30;;;29.30;80.40;;;;;;5048888;28;20422;-70
2022/08/25 12:40:58;;;;;;;4.43;3.13;;;29.40;80.20;;;;;;5049486;28;20446;-71
2022/08/25 12:43:34;;;;;;;2.63;2.43;;;29.40;78.00;;;;;;5049220;28;20420;-70
2022/08/25 12:46:18;;;;;;;3.17;2.97;;;29.70;78.10;;;;;;5049173;28;20448;-69
2022/08/25 12:49:21;;;;;;;2.60;2.40;;;29.90;78.00;;;;;;5049375;28;20458;-71
2022/08/25 12:51:53;;;;;;;3.20;2.90;;;30.10;78.40;;;;;;5049280;28;20792;-70
2022/08/25 12:54:31;;;;;;;3.17;2.87;;;30.20;77.20;;;;;;5047711;28;20517;-70
2022/08/25 12:57:02;;;;;;;2.87;2.67;;;30.20;75.90;;;;;;5049086;28;20460;-70
2022/08/25 12:59:36;;;;;;;2.53;2.43;;;30.30;77.80;;;;;;5049127;28;20426;-70
2022/08/25 13:02:23;;;;;;;2.67;2.47;;;30.10;75.70;;;;;;5049228;28;20420;-70
2022/08/25 13:05:04;;;;;;;2.80;2.43;;;29.80;75.40;;;;;;5049348;28;20409;-70
2022/08/25 13:07:48;;;;;;;2.70;2.50;;;29.60;77.00;;;;;;5049023;28;20465;-70
2022/08/25 13:10:23;;;;;;;3.37;3.07;;;29.40;76.20;;;;;;5048990;28;20520;-71
2022/08/25 13:13:19;;;;;;;4.17;2.47;;;29.30;76.70;;;;;;5049062;28;20420;-69
2022/08/25 13:16:01;;;;;;;2.67;2.47;;;29.40;81.10;;;;;;5048339;28;20415;-70